createdAt,value
2017-07-14T03:32:40.472Z,49.20
2017-07-14T03:35:08.106Z,50.00
2017-07-14T03:37:35.754Z,50.20
2017-07-14T03:40:03.829Z,50.20
2017-07-14T03:42:31.456Z,49.80
2017-07-14T03:45:00.070Z,48.50
2017-07-14T03:47:28.135Z,48.90
2017-07-14T03:49:56.137Z,49.20
2017-07-14T03:52:23.768Z,49.40
2017-07-14T03:54:51.733Z,49.50
2017-07-14T03:57:19.457Z,49.80
2017-07-14T03:59:47.097Z,50.20
2017-07-14T04:02:15.075Z,50.80
2017-07-14T04:04:42.712Z,51.20
2017-07-14T04:07:10.349Z,51.10
2017-07-14T04:09:38.743Z,49.60
2017-07-14T04:12:06.397Z,49.50
2017-07-14T04:14:34.450Z,49.10
2017-07-14T04:17:02.916Z,49.40
2017-07-14T04:19:30.564Z,49.40
2017-07-14T04:21:58.666Z,49.70
2017-07-14T04:24:26.284Z,49.80
2017-07-14T04:26:53.936Z,50.30
2017-07-14T04:29:22.457Z,50.60
2017-07-14T04:31:50.080Z,50.40
2017-07-14T04:34:17.802Z,50.20
2017-07-14T04:36:45.873Z,50.10
2017-07-14T04:39:13.499Z,49.70
2017-07-14T04:41:41.158Z,49.70
2017-07-14T04:44:09.169Z,49.80
2017-07-14T04:46:36.797Z,50.10
2017-07-14T04:49:04.434Z,49.80
2017-07-14T04:51:32.135Z,49.80
2017-07-14T04:53:59.776Z,49.80
2017-07-14T04:56:27.435Z,50.20
2017-07-14T04:58:55.120Z,50.00
2017-07-14T05:01:22.790Z,50.00
2017-07-14T05:03:51.313Z,50.60
2017-07-14T05:06:19.013Z,50.50
2017-07-14T05:08:46.737Z,53.60
2017-07-14T05:11:14.766Z,55.20
2017-07-14T05:13:43.185Z,56.30
2017-07-14T05:16:10.820Z,56.30
2017-07-14T05:18:39.563Z,57.20
2017-07-14T05:21:07.435Z,57.20
2017-07-14T05:23:35.155Z,56.20
2017-07-14T05:26:03.243Z,55.60
2017-07-14T05:28:30.890Z,55.50
2017-07-14T05:30:58.525Z,55.50
2017-07-14T05:33:27.038Z,53.00
2017-07-14T05:35:54.706Z,52.90
2017-07-14T05:38:22.369Z,53.10
2017-07-14T05:40:49.989Z,52.50
2017-07-14T05:43:18.419Z,51.80
2017-07-14T05:45:46.081Z,51.70
2017-07-14T05:48:14.111Z,51.90
2017-07-14T05:50:42.226Z,51.90
2017-07-14T05:53:09.863Z,52.30
2017-07-14T05:55:37.535Z,52.60
2017-07-14T05:58:05.258Z,52.80
2017-07-14T06:00:33.674Z,51.50
2017-07-14T06:03:01.314Z,51.50
2017-07-14T06:05:28.976Z,50.50
2017-07-14T06:07:56.778Z,50.50
2017-07-14T06:10:24.457Z,52.50
2017-07-14T06:12:52.090Z,52.80
2017-07-14T06:15:20.136Z,53.70
2017-07-14T06:17:47.884Z,54.30
2017-07-14T06:20:16.481Z,52.30
2017-07-14T06:22:44.140Z,52.20
2017-07-14T06:25:11.767Z,52.30
2017-07-14T06:27:39.428Z,51.20
2017-07-14T06:30:07.087Z,49.60
2017-07-14T06:32:35.054Z,48.80
2017-07-14T06:35:02.838Z,49.60
2017-07-14T06:37:30.491Z,49.80
2017-07-14T06:39:58.462Z,49.70
2017-07-14T06:42:26.110Z,50.10
2017-07-14T06:44:53.753Z,48.90
2017-07-14T06:47:21.765Z,47.70
2017-07-14T06:49:50.155Z,46.10
2017-07-14T06:52:18.642Z,45.90
2017-07-14T06:54:46.652Z,45.90
2017-07-14T06:57:14.293Z,46.30
2017-07-14T06:59:41.939Z,47.20
2017-07-14T07:02:09.591Z,47.10
2017-07-14T07:04:37.240Z,47.00
2017-07-14T07:07:04.944Z,46.90
2017-07-14T07:09:32.580Z,47.20
2017-07-14T07:12:00.532Z,46.80
2017-07-14T07:14:28.944Z,45.40
2017-07-14T07:16:56.613Z,45.40
2017-07-14T07:19:24.259Z,44.60
2017-07-14T07:21:51.888Z,45.20
2017-07-14T07:24:19.548Z,44.90
2017-07-14T07:26:47.215Z,45.30
2017-07-14T07:29:14.884Z,43.40
2017-07-14T07:31:43.314Z,45.00
2017-07-14T07:34:11.287Z,45.00
2017-07-14T07:36:38.949Z,44.20
2017-07-14T07:39:06.638Z,44.50
2017-07-14T07:41:34.304Z,43.80
2017-07-14T07:44:01.947Z,43.80
2017-07-14T07:46:35.295Z,42.20
2017-07-14T07:49:08.481Z,41.50
2017-07-14T07:51:36.151Z,41.70
2017-07-14T07:54:03.806Z,39.40
2017-07-14T07:56:31.797Z,39.40
2017-07-14T07:58:59.460Z,40.90
2017-07-14T08:01:27.123Z,40.30
2017-07-14T08:03:54.772Z,39.30
2017-07-14T08:06:22.419Z,39.00
2017-07-14T08:08:50.555Z,39.00
2017-07-14T08:11:18.193Z,40.70
2017-07-14T08:13:45.849Z,40.80
2017-07-14T08:16:13.889Z,39.80
2017-07-14T08:18:41.777Z,38.20
2017-07-14T08:21:09.422Z,39.00
2017-07-14T08:23:37.499Z,37.10
2017-07-14T08:26:05.121Z,38.00
2017-07-14T08:28:32.769Z,38.50
2017-07-14T08:31:00.722Z,37.40
2017-07-14T08:33:28.368Z,36.80
2017-07-14T08:35:56.020Z,36.70
2017-07-14T08:38:24.288Z,36.30
2017-07-14T08:40:51.919Z,36.60
2017-07-14T08:43:20.317Z,36.60
2017-07-14T08:45:48.296Z,36.50
2017-07-14T08:48:15.920Z,35.90
2017-07-14T08:50:43.583Z,35.90
2017-07-14T08:53:11.603Z,36.60
2017-07-14T08:55:39.243Z,37.00
2017-07-14T08:58:06.875Z,33.80
2017-07-14T09:00:34.617Z,34.10
2017-07-14T09:03:02.269Z,32.50
2017-07-14T09:05:29.922Z,32.40
2017-07-14T09:07:57.577Z,32.80
2017-07-14T09:10:25.256Z,31.20
2017-07-14T09:12:52.903Z,31.30
2017-07-14T09:15:20.946Z,30.10
2017-07-14T09:17:48.579Z,30.10
2017-07-14T09:20:16.258Z,29.20
2017-07-14T09:22:44.694Z,28.40
2017-07-14T09:25:12.331Z,28.40
2017-07-14T09:27:40.020Z,28.20
2017-07-14T09:30:07.688Z,26.80
2017-07-14T09:32:35.344Z,27.10
2017-07-14T09:35:03.003Z,27.70
2017-07-14T09:37:30.675Z,29.50
2017-07-14T09:39:58.335Z,28.10
2017-07-14T09:42:26.000Z,28.20
2017-07-14T09:44:53.653Z,27.60
2017-07-14T09:47:21.296Z,23.70
2017-07-14T09:49:48.968Z,22.20
2017-07-14T09:52:16.654Z,21.20
2017-07-14T09:54:44.650Z,20.60
2017-07-14T09:57:12.283Z,19.10
2017-07-14T09:59:40.521Z,18.20
2017-07-14T10:02:08.223Z,18.30
2017-07-14T10:04:35.863Z,19.00
2017-07-14T10:07:03.532Z,17.50
2017-07-14T10:09:31.243Z,19.10
2017-07-14T10:11:58.898Z,18.20
2017-07-14T10:14:26.544Z,17.80
2017-07-14T10:16:54.572Z,17.10
2017-07-14T10:19:22.252Z,17.20
2017-07-14T10:21:49.900Z,17.20
2017-07-14T10:24:17.534Z,19.60
2017-07-14T10:26:45.398Z,21.60
2017-07-14T10:29:13.069Z,22.80
2017-07-14T10:31:40.711Z,23.30
2017-07-14T10:34:09.473Z,25.00
2017-07-14T10:36:37.279Z,25.00
2017-07-14T10:39:04.923Z,21.50
2017-07-14T10:41:32.906Z,22.20
2017-07-14T10:44:00.552Z,21.70
2017-07-14T10:46:28.227Z,22.30
2017-07-14T10:48:56.294Z,22.20
2017-07-14T10:51:24.286Z,21.30
2017-07-14T10:53:51.915Z,21.70
2017-07-14T10:56:20.351Z,20.90
2017-07-14T10:58:48.012Z,20.90
2017-07-14T11:01:16.027Z,21.50
2017-07-14T11:03:44.445Z,23.40
2017-07-14T11:06:12.106Z,23.40
2017-07-14T11:08:39.772Z,24.30
2017-07-14T11:11:07.422Z,25.40
2017-07-14T11:13:35.198Z,25.10
2017-07-14T11:16:02.859Z,25.20
2017-07-14T11:18:30.601Z,25.30
2017-07-14T11:20:59.550Z,24.80
2017-07-14T11:23:28.384Z,27.10
2017-07-14T11:25:56.345Z,27.10
2017-07-14T11:28:24.095Z,28.10
2017-07-14T11:30:51.802Z,28.00
2017-07-14T11:33:19.465Z,29.00
2017-07-14T11:35:47.213Z,28.80
2017-07-14T11:38:14.872Z,28.30
2017-07-14T11:40:42.919Z,28.00
2017-07-14T11:43:11.358Z,29.40
2017-07-14T11:45:39.150Z,29.40
2017-07-14T11:48:07.961Z,29.20
2017-07-14T11:50:35.633Z,29.00
2017-07-14T11:53:03.290Z,28.70
2017-07-14T11:55:31.345Z,28.50
2017-07-14T11:57:59.740Z,28.80
2017-07-14T12:00:27.443Z,28.70
2017-07-14T12:02:55.688Z,28.50
2017-07-14T12:05:23.332Z,29.30
2017-07-14T12:07:51.731Z,30.00
2017-07-14T12:10:19.736Z,30.00
2017-07-14T12:12:47.458Z,29.80
2017-07-14T12:15:15.099Z,29.20
2017-07-14T12:17:43.439Z,28.50
2017-07-14T12:20:11.120Z,29.20
2017-07-14T12:22:38.768Z,28.80
2017-07-14T12:25:06.768Z,29.20
2017-07-14T12:27:35.190Z,27.30
2017-07-14T12:30:02.837Z,27.70
2017-07-14T12:32:30.540Z,26.40
2017-07-14T12:34:58.196Z,25.90
2017-07-14T12:37:25.885Z,25.10
2017-07-14T12:39:53.524Z,26.00
2017-07-14T12:42:21.189Z,25.40
2017-07-14T12:44:48.827Z,25.50
2017-07-14T12:47:16.484Z,24.90
2017-07-14T12:49:44.168Z,25.50
2017-07-14T12:52:12.173Z,25.20
2017-07-14T12:54:40.705Z,24.90
2017-07-14T12:57:08.346Z,24.70
2017-07-14T12:59:36.027Z,25.70
2017-07-14T13:02:03.685Z,25.10
2017-07-14T13:04:31.339Z,26.20
2017-07-14T13:07:13.153Z,25.80
2017-07-14T13:09:40.817Z,26.80
2017-07-14T13:12:08.462Z,26.60
2017-07-14T13:14:37.623Z,27.00
2017-07-14T13:17:05.284Z,27.40
2017-07-14T13:19:33.873Z,27.50
2017-07-14T13:22:02.602Z,27.90
2017-07-14T13:24:30.247Z,27.90
2017-07-14T13:26:58.122Z,28.30
2017-07-14T13:29:26.255Z,28.20
2017-07-14T13:31:54.676Z,28.40
2017-07-14T13:34:22.317Z,28.40
2017-07-14T13:36:50.313Z,28.50
2017-07-14T13:39:17.945Z,28.00
2017-07-14T13:41:45.584Z,28.20
2017-07-14T13:44:14.376Z,28.70
2017-07-14T13:46:42.797Z,29.30
2017-07-14T13:49:10.462Z,29.20
2017-07-14T13:51:38.519Z,29.00
2017-07-14T13:54:06.166Z,28.60
2017-07-14T13:56:33.839Z,28.80
2017-07-14T13:59:04.048Z,29.60
2017-07-14T14:01:31.719Z,29.20
2017-07-14T14:03:59.540Z,29.30
2017-07-14T14:06:27.386Z,29.50
2017-07-14T14:08:55.070Z,29.50
2017-07-14T14:11:22.827Z,29.60
2017-07-14T14:13:50.498Z,30.00
2017-07-14T14:16:18.235Z,30.00
2017-07-14T14:18:46.443Z,30.40
2017-07-14T14:21:14.131Z,30.70
2017-07-14T14:23:41.782Z,30.50
2017-07-14T14:26:09.791Z,30.20
2017-07-14T14:28:37.465Z,30.00
2017-07-14T14:31:05.113Z,30.80
2017-07-14T14:33:33.263Z,31.50
2017-07-14T14:36:00.917Z,32.70
2017-07-14T14:38:28.560Z,32.40
2017-07-14T14:40:57.316Z,32.70
2017-07-14T14:43:25.039Z,32.50
2017-07-14T14:45:52.703Z,32.00
2017-07-14T14:48:20.853Z,32.50
2017-07-14T14:50:48.515Z,32.10
2017-07-14T14:53:16.147Z,32.30
2017-07-14T14:55:43.814Z,32.40
2017-07-14T14:58:11.446Z,32.90
2017-07-14T15:00:39.121Z,33.30
2017-07-14T15:03:06.801Z,32.90
2017-07-14T15:05:34.474Z,33.60
2017-07-14T15:08:02.870Z,33.40
2017-07-14T15:10:31.698Z,33.90
2017-07-14T15:12:59.375Z,33.80
2017-07-14T15:15:27.091Z,34.00
2017-07-14T15:17:54.786Z,33.90
2017-07-14T15:20:22.458Z,33.20
2017-07-14T15:22:50.121Z,33.40
2017-07-14T15:25:17.813Z,33.10
2017-07-14T15:27:45.566Z,33.10
2017-07-14T15:30:13.236Z,32.70
2017-07-14T15:32:41.245Z,30.90
2017-07-14T15:35:09.420Z,31.00
2017-07-14T15:37:37.099Z,31.40
2017-07-14T15:40:05.861Z,31.70
2017-07-14T15:42:33.655Z,32.30
2017-07-14T15:45:01.395Z,31.90
2017-07-14T15:47:29.370Z,32.00
2017-07-14T15:49:57.036Z,32.70
2017-07-14T15:52:24.676Z,33.90
2017-07-14T15:54:53.137Z,34.10
2017-07-14T15:57:20.771Z,34.00
2017-07-14T15:59:48.781Z,33.00
2017-07-14T16:02:17.206Z,35.10
2017-07-14T16:04:44.890Z,35.00
2017-07-14T16:07:12.558Z,34.60
2017-07-14T16:09:40.227Z,35.00
2017-07-14T16:12:07.889Z,35.50
2017-07-14T16:14:35.573Z,36.40
2017-07-14T16:17:04.882Z,41.40
2017-07-14T16:19:32.595Z,41.40
2017-07-14T16:22:00.276Z,46.00
2017-07-14T16:24:27.939Z,52.50
2017-07-14T16:26:55.923Z,56.20
2017-07-14T16:29:24.362Z,59.90
2017-07-14T16:31:52.038Z,59.80
2017-07-14T16:34:19.703Z,62.20
2017-07-14T16:36:47.388Z,61.50
2017-07-14T16:39:15.846Z,59.50
2017-07-14T16:41:43.496Z,59.40
2017-07-14T16:44:11.522Z,59.20
2017-07-14T16:46:39.172Z,57.70
2017-07-14T16:49:07.611Z,56.30
2017-07-14T16:51:35.759Z,56.20
2017-07-14T16:54:03.529Z,55.30
2017-07-14T16:56:31.197Z,54.10
2017-07-14T16:58:58.948Z,54.30
2017-07-14T17:01:26.665Z,53.50
2017-07-14T17:03:54.324Z,53.50
2017-07-14T17:06:23.489Z,53.70
2017-07-14T17:08:51.229Z,53.70
2017-07-14T17:11:18.851Z,53.20
2017-07-14T17:13:47.305Z,53.90
2017-07-14T17:16:14.966Z,54.10
2017-07-14T17:18:42.643Z,54.00
2017-07-14T17:21:10.416Z,54.50
2017-07-14T17:23:39.315Z,54.50
2017-07-14T17:26:08.350Z,54.10
2017-07-14T17:28:36.031Z,54.10
2017-07-14T17:31:04.183Z,53.70
2017-07-14T17:33:31.838Z,53.40
2017-07-14T17:35:59.585Z,52.40
2017-07-14T17:38:27.796Z,52.80
2017-07-14T17:40:55.453Z,53.80
2017-07-14T17:43:23.123Z,54.40
2017-07-14T17:45:51.686Z,54.10
2017-07-14T17:48:19.342Z,54.00
2017-07-14T17:50:47.165Z,53.90
2017-07-14T17:53:15.190Z,53.50
2017-07-14T17:55:42.862Z,54.60
2017-07-14T17:58:10.539Z,55.10
2017-07-14T18:00:38.542Z,55.20
2017-07-14T18:03:06.991Z,54.80
2017-07-14T18:05:34.650Z,54.70
2017-07-14T18:08:02.795Z,55.60
2017-07-14T18:10:35.277Z,54.80
2017-07-14T18:13:03.402Z,55.50
2017-07-14T18:15:31.836Z,55.70
2017-07-14T18:17:59.513Z,55.30
2017-07-14T18:20:27.193Z,56.00
2017-07-14T18:22:54.835Z,56.70
2017-07-14T18:25:22.904Z,57.30
2017-07-14T18:27:50.565Z,56.90
2017-07-14T18:30:18.283Z,57.20
2017-07-14T18:32:46.359Z,57.20
2017-07-14T18:35:14.078Z,58.00
2017-07-14T18:37:41.759Z,57.10
2017-07-14T18:40:10.580Z,57.50
2017-07-14T18:42:39.226Z,57.40
2017-07-14T18:45:06.923Z,57.90
2017-07-14T18:47:34.933Z,57.90
2017-07-14T18:50:02.602Z,57.80
2017-07-14T18:52:30.264Z,58.70
2017-07-14T18:54:58.341Z,58.40
2017-07-14T18:57:26.000Z,58.20
2017-07-14T18:59:53.668Z,58.20
2017-07-14T19:02:21.818Z,57.30
2017-07-14T19:04:49.517Z,57.50
2017-07-14T19:07:17.756Z,58.10
2017-07-14T19:09:46.192Z,58.60
2017-07-14T19:12:14.557Z,58.70
2017-07-14T19:14:42.992Z,58.70
2017-07-14T19:17:10.673Z,58.60
2017-07-14T19:19:38.358Z,58.70
2017-07-14T19:22:06.795Z,58.50
2017-07-14T19:24:34.788Z,58.40
2017-07-14T19:27:02.461Z,58.70
2017-07-14T19:29:30.160Z,58.60
2017-07-14T19:31:58.552Z,58.70
2017-07-14T19:34:26.210Z,58.80
2017-07-14T19:36:53.906Z,58.10
2017-07-14T19:39:21.576Z,58.10
2017-07-14T19:41:49.271Z,58.20
2017-07-14T19:44:17.895Z,58.30
2017-07-14T19:46:45.947Z,58.20
2017-07-14T19:49:13.606Z,58.70
2017-07-14T19:51:43.050Z,58.90
2017-07-14T19:54:10.720Z,59.30
2017-07-14T19:56:38.375Z,59.40
2017-07-14T19:59:06.278Z,59.30
2017-07-14T20:01:34.919Z,59.20
2017-07-14T20:04:02.594Z,59.20
2017-07-14T20:06:30.259Z,59.30
2017-07-14T20:08:58.295Z,59.30
2017-07-14T20:11:25.974Z,59.40
2017-07-14T20:13:53.658Z,59.70
2017-07-14T20:16:21.330Z,59.80
2017-07-14T20:18:49.015Z,59.80
2017-07-14T20:21:18.730Z,59.20
2017-07-14T20:23:48.896Z,59.20
2017-07-14T20:26:16.773Z,59.10
2017-07-14T20:28:44.416Z,59.40
2017-07-14T20:31:12.109Z,59.70
2017-07-14T20:33:39.855Z,60.00
2017-07-14T20:36:07.569Z,60.20
2017-07-14T20:38:36.365Z,60.20
2017-07-14T20:41:03.993Z,60.10
2017-07-14T20:43:31.662Z,59.70
2017-07-14T20:46:00.870Z,60.10
2017-07-14T20:48:29.293Z,60.10
2017-07-14T20:50:56.970Z,60.00
2017-07-14T20:53:24.953Z,60.40
2017-07-14T20:55:52.903Z,60.90
2017-07-14T20:58:20.583Z,60.90
2017-07-14T21:00:48.557Z,61.30
2017-07-14T21:03:16.213Z,60.70
2017-07-14T21:05:43.909Z,60.50
2017-07-14T21:08:12.349Z,60.90
2017-07-14T21:10:39.989Z,60.80
2017-07-14T21:13:07.666Z,60.60
2017-07-14T21:15:35.301Z,60.60
2017-07-14T21:18:02.960Z,60.90
2017-07-14T21:20:30.657Z,60.80
2017-07-14T21:22:58.670Z,61.20
2017-07-14T21:25:27.096Z,61.00
2017-07-14T21:27:54.755Z,61.00
2017-07-14T21:30:22.430Z,61.20
2017-07-14T21:32:50.088Z,61.20
2017-07-14T21:35:17.739Z,61.40
2017-07-14T21:37:45.379Z,61.00
2017-07-14T21:40:13.055Z,61.00
2017-07-14T21:42:40.717Z,60.60
2017-07-14T21:45:08.693Z,60.50
2017-07-14T21:47:36.344Z,60.50
2017-07-14T21:50:04.389Z,60.70
2017-07-14T21:52:32.082Z,60.80
2017-07-14T21:54:59.721Z,61.20
2017-07-14T21:57:27.415Z,60.60
2017-07-14T21:59:55.066Z,61.40
2017-07-14T22:02:22.967Z,61.40
2017-07-14T22:04:50.626Z,61.70
2017-07-14T22:07:18.301Z,61.90
2017-07-14T22:09:45.961Z,62.00
2017-07-14T22:12:13.613Z,61.80
2017-07-14T22:14:41.265Z,61.90
2017-07-14T22:17:09.282Z,61.80
2017-07-14T22:19:36.935Z,61.60
2017-07-14T22:22:05.700Z,61.10
2017-07-14T22:24:33.647Z,61.00
2017-07-14T22:27:01.297Z,61.00
2017-07-14T22:29:28.968Z,61.40
